Barbados Meteorological Services
Auto gathered TAF list
Powered by Apparatus software
For Flight AA1089
Contact Number 1-(246)-535-0021/2/3/4/5/6
WEB: http://www.barbadosweather.org

**********************************************

2018/09/20 18:12
TAF TLPL 201700Z 2018/2118 10018KT 9999 SCT025 PROB30
TEMPO 2018/2106 SHRA


**********************************************
2018/09/20 12:52
TAF TJSJ 201150Z 2012/2112 11005KT P6SM VCSH FEW022 SCT040 SCT080
FM201400 07015KT P6SM SCT030
FM202300 11005KT P6SM FEW022 SCT035


**********************************************
2018/09/20 18:09
TAF TFFR 201600Z 2018/2118 09014KT 9999 SCT030 SCT050


**********************************************
2018/09/20 18:03
TAF TAF TBPB 201700Z 2018/2118 08020KT 8000 SCT022


**********************************************
2018/09/20 18:05
TAF TAPA 201700Z 2018/2118 07012KT 9999 SCT022


**********************************************
2018/09/20 18:45
TAF MYNN 201630Z 2018/2118 12005KT 9999 VCSH FEW018CB SCT020 PROB30
TEMPO 2020/2024 VRB10KT 9000 SHRA SCT018CB PROB30
TEMPO 2109/2115 VRB10KT 4800 TSRA BKN015CB BKN030 PROB30
TEMPO 2116/2118 9000 SHRA SCT015CB


**********************************************
2018/09/20 18:57
TAF TAF MTPP 201700Z 2018/2118 10012G22KT 8000 FEW020
TEMPO 2022/2104 26008KT 4000 TSRA SCT016CB BKN030
BECMG 2106/2110 12010KT 7000 NSW FEW020 SCT040


**********************************************
2018/09/20 18:25
TAF MDSD 201600Z 2018/2118 08006KT 9999 FEW012CB BKN014 BKN070 PROB40
TEMPO 2018/2100 6000 TSRA FEW010CB BKN012 OVC070
BECMG 2023/2101 00000KT


**********************************************
2018/09/20 18:44
TAF KSFB 201742Z 2018/2118 06006KT P6SM VCTS SCT035CB
FM202200 09010KT P6SM SCT045 SCT250
FM210000 08004KT P6SM FEW040


**********************************************
2018/09/20 18:28
TAF KPHL 201720Z 2018/2124 09007KT P6SM BKN025 OVC050
FM202100 14007KT P6SM SCT025 OVC050
FM210400 14003KT P6SM OVC025
FM211100 17006KT P6SM OVC015
FM211600 19009KT P6SM SCT015 BKN025
FM212100 20012KT P6SM SCT060 BKN150


**********************************************
2018/09/20 18:42
TAF
AMD KPBI 201734Z 2018/2118 08010KT P6SM VCTS SCT030CB SCT050
FM202200 09008KT P6SM SCT030 SCT050
FM210300 VRB04KT P6SM SCT040 SCT250
FM211500 08007KT P6SM SCT030 SCT050


**********************************************
2018/09/20 18:22
TAF KOPF 201720Z 2018/2118 09008KT P6SM SCT030 SCT050
FM201900 09009KT P6SM VCTS SCT030CB SCT050
FM202300 09007KT P6SM SCT030 SCT050
FM210300 VRB04KT P6SM SCT040 SCT250
FM211500 08008KT P6SM SCT030 SCT050


**********************************************
2018/09/20 18:22
TAF KMIA 201720Z 2018/2124 09010KT P6SM SCT030 SCT050
FM201900 09010KT P6SM VCTS SCT030CB SCT050
FM202300 09007KT P6SM SCT030 SCT050
FM210300 VRB04KT P6SM SCT040 SCT250
FM211500 07008KT P6SM SCT030 SCT250
FM211800 09008KT P6SM VCTS SCT030CB SCT050


**********************************************
2018/09/20 18:44
TAF KMCO 201742Z 2018/2124 07005KT P6SM SCT035
FM201900 07010KT P6SM VCTS SCT025CB SCT250
FM210000 06004KT P6SM FEW045 FEW080
FM211500 07010KT P6SM SCT035


**********************************************
2018/09/20 18:42
TAF KJFK 201734Z 2018/2124 13007KT P6SM BKN035
FM202000 14007KT P6SM SCT035
FM210400 13006KT P6SM BKN029
FM211600 17012G20KT P6SM BKN025
FM212100 18018G28KT P6SM SCT035


**********************************************
2018/09/20 18:40
TAF KJAX 201738Z 2018/2118 07011G17KT P6SM SCT035 BKN070
FM202300 08010KT P6SM FEW030
FM210100 09007KT P6SM FEW020 SCT070
FM210500 VRB03KT P6SM SCT020 BKN070
FM211400 08010KT P6SM VCSH SCT030


**********************************************
2018/09/20 18:28
TAF KFLL 201720Z 2018/2124 10010KT P6SM SCT030 SCT050
FM201900 10010KT P6SM VCTS SCT030CB SCT050
FM202300 09007KT P6SM SCT030 SCT050
FM210300 VRB05KT P6SM SCT040 SCT250
FM211500 07008KT P6SM SCT030 SCT250
FM211800 09008KT P6SM VCTS SCT030CB SCT250


**********************************************
2018/09/20 18:36
TAF KEWR 201734Z 2018/2124 12005KT P6SM OVC050
FM202100 14005KT P6SM SCT030
FM210500 14005KT P6SM BKN026
FM211600 16010G17KT P6SM BKN026
FM211800 18014G24KT P6SM BKN028


**********************************************
2018/09/20 18:44
TAF KCLT 201743Z 2018/2124 18005KT P6SM FEW045 FEW250
FM210000 14003KT P6SM FEW230
FM211000 VRB02KT 4SM BR FEW015 SCT040
FM211300 18003KT P6SM SCT060
FM211700 20006KT P6SM FEW030 SCT060


**********************************************
2018/09/20 18:36
TAF KATL 201734Z 2018/2124 12006KT P6SM SCT050
FM210400 13004KT P6SM SKC
FM211600 13007KT P6SM FEW060


**********************************************